Time;durP1;ratioP1;P1;durP2;ratioP2;P2;SDS_P1;SDS_P2;PMS_P1;PMS_P2;Temp;Humidity;BMP_temperature;BMP_pressure;BME280_temperature;BME280_humidity;BME280_pressure;Samples;Min_cycle;Max_cycle;Signal;HPM_P1;HPM_P2
2022/08/22 00:02:22;;;;;;;1.30;1.10;;;;;;;23.34;53.66;93210.28;4814362;29;20043;-94
2022/08/22 00:05:41;;;;;;;1.17;1.00;;;;;;;23.35;53.59;93222.78;4779117;30;20040;-94
2022/08/22 00:08:21;;;;;;;1.35;0.95;;;;;;;23.35;53.42;93224.81;4767209;30;20055;-94
2022/08/22 00:10:56;;;;;;;1.10;0.88;;;;;;;23.32;53.58;93218.38;4768214;30;20523;-94
2022/08/22 00:14:04;;;;;;;0.98;0.93;;;;;;;23.34;53.55;93221.31;4824746;29;20054;-93
2022/08/22 00:16:54;;;;;;;1.02;0.90;;;;;;;23.32;53.57;93223.88;4818951;29;20050;-93
2022/08/22 00:19:49;;;;;;;0.93;0.82;;;;;;;23.33;53.64;93224.63;4852933;29;20040;-94
2022/08/22 00:22:42;;;;;;;1.10;1.00;;;;;;;23.33;53.41;93222.59;4855520;29;20033;-92
2022/08/22 00:25:33;;;;;;;1.20;0.90;;;;;;;23.33;53.43;93225.34;4819771;29;20069;-94
2022/08/22 00:28:15;;;;;;;1.33;0.70;;;;;;;23.35;53.41;93211.00;4840884;29;20635;-93
2022/08/22 00:31:06;;;;;;;1.58;1.15;;;;;;;23.34;53.46;93223.34;4854257;29;20071;-93
2022/08/22 00:33:44;;;;;;;1.73;0.93;;;;;;;23.29;53.49;93211.19;4830455;29;20300;-93
2022/08/22 00:36:32;;;;;;;1.80;1.02;;;;;;;23.31;53.64;93221.66;4784959;29;20038;-93
2022/08/22 00:39:07;;;;;;;1.52;1.20;;;;;;;23.32;53.42;93228.66;4831769;29;20676;-92
2022/08/22 00:42:08;;;;;;;0.95;0.85;;;;;;;23.29;53.47;93222.22;4817130;29;20038;-93
2022/08/22 00:45:17;;;;;;;1.10;1.00;;;;;;;23.35;53.34;93224.81;4819194;29;20046;-93
2022/08/22 00:47:53;;;;;;;1.40;1.10;;;;;;;23.33;53.43;93222.59;4831083;29;20038;-93
2022/08/22 00:50:39;;;;;;;1.10;0.95;;;;;;;23.34;53.35;93226.09;4803735;29;20057;-93
2022/08/22 00:53:34;;;;;;;1.17;1.08;;;;;;;23.29;53.64;93227.00;4814170;29;20038;-94
2022/08/22 00:56:25;;;;;;;1.10;1.00;;;;;;;23.28;53.47;93214.47;4811609;29;20046;-93
2022/08/22 00:59:17;;;;;;;;;;;;;;;23.32;53.35;93223.88;4777435;30;20043;-93
2022/08/22 01:01:58;;;;;;;1.10;1.00;;;;;;;23.30;53.65;93223.69;4777356;30;19918;-93
2022/08/22 01:04:51;;;;;;;1.02;0.95;;;;;;;23.30;53.53;93222.94;4825261;29;20053;-94
2022/08/22 01:07:35;;;;;;;1.25;0.95;;;;;;;23.29;53.39;93232.50;4864519;29;20075;-93
2022/08/22 01:10:09;;;;;;;1.48;1.15;;;;;;;23.27;53.44;93219.25;4848867;29;20045;-94
2022/08/22 01:13:02;;;;;;;0.82;0.80;;;;;;;23.25;53.60;93225.31;4870375;29;20182;-93
2022/08/22 01:15:50;;;;;;;0.88;0.85;;;;;;;23.26;53.47;93217.78;4831770;29;20334;-94
2022/08/22 01:18:49;;;;;;;0.82;0.80;;;;;;;23.29;53.50;93210.44;4814751;29;20045;-94
2022/08/22 01:22:05;;;;;;;1.15;0.80;;;;;;;23.31;53.36;93221.66;4831634;29;20108;-93
2022/08/22 01:25:19;;;;;;;1.55;1.00;;;;;;;23.30;53.24;93214.69;4775117;30;20047;-93
2022/08/22 01:28:07;;;;;;;1.65;1.10;;;;;;;23.27;53.41;93219.25;4765561;30;20428;-93
2022/08/22 01:30:58;;;;;;;1.17;0.75;;;;;;;23.27;53.47;93218.53;4802460;29;20121;-95
2022/08/22 01:33:42;;;;;;;0.77;0.75;;;;;;;23.27;53.48;93221.28;4817074;29;20035;-94
2022/08/22 01:36:32;;;;;;;1.42;1.05;;;;;;;23.31;53.24;93222.41;4840412;29;20124;-93
2022/08/22 01:39:40;;;;;;;1.38;1.05;;;;;;;23.28;53.42;93217.25;4833894;29;20041;-93
2022/08/22 01:43:02;;;;;;;1.27;1.00;;;;;;;23.27;53.23;93218.53;4830395;29;20071;-94
2022/08/22 01:45:54;;;;;;;1.35;1.05;;;;;;;23.24;53.42;93221.09;4815756;29;20030;-94
2022/08/22 01:48:38;;;;;;;0.95;0.70;;;;;;;23.28;53.21;93220.00;4817880;29;20049;-94
2022/08/22 01:51:45;;;;;;;0.90;0.80;;;;;;;23.28;53.28;93208.97;4793528;30;20043;-94
2022/08/22 01:54:27;;;;;;;0.88;0.88;;;;;;;23.25;53.40;93217.03;4792868;30;20123;-93
2022/08/22 01:57:26;;;;;;;0.88;0.80;;;;;;;23.29;53.35;93207.69;4750640;29;20054;-93
2022/08/22 01:59:57;;;;;;;1.23;0.93;;;;;;;23.24;53.46;93204.53;4785969;29;20054;-94
2022/08/22 02:03:03;;;;;;;1.98;1.00;;;;;;;23.27;53.32;93213.00;4832574;29;20046;-94
2022/08/22 02:05:50;;;;;;;1.17;0.85;;;;;;;23.24;53.53;93204.53;4847654;29;20101;-93
2022/08/22 02:08:37;;;;;;;1.42;0.88;;;;;;;23.22;53.56;93200.84;4823008;29;20503;-93
2022/08/22 02:11:27;;;;;;;1.77;1.17;;;;;;;23.24;53.36;93212.81;4796432;29;20578;-93
2022/08/22 02:14:36;;;;;;;1.27;0.93;;;;;;;23.25;53.22;93203.25;4833090;29;20040;-94
2022/08/22 02:17:18;;;;;;;1.05;0.93;;;;;;;23.23;53.26;93200.31;4865189;29;20041;-94
2022/08/22 02:20:17;;;;;;;1.33;1.00;;;;;;;23.25;53.24;93203.25;4841917;29;20039;-93
2022/08/22 02:22:58;;;;;;;1.15;0.90;;;;;;;23.23;53.24;93208.59;4811168;29;20490;-93
2022/08/22 02:25:45;;;;;;;1.10;1.00;;;;;;;23.23;53.25;93216.84;4792932;29;20496;-94
2022/08/22 02:28:26;;;;;;;1.20;1.10;;;;;;;23.25;53.15;93219.06;4787543;30;20119;-93
2022/08/22 02:31:02;;;;;;;1.25;0.93;;;;;;;23.22;53.38;93215.38;4787894;30;20069;-94
2022/08/22 02:34:00;;;;;;;1.25;0.90;;;;;;;23.21;53.29;93218.69;4778898;30;20124;-93
2022/08/22 02:36:52;;;;;;;1.10;0.90;;;;;;;23.19;53.34;93210.22;4774869;30;20064;-93
2022/08/22 02:39:41;;;;;;;1.13;0.93;;;;;;;23.22;53.29;93222.91;4722159;30;20322;-94
2022/08/22 02:42:28;;;;;;;1.45;0.95;;;;;;;23.21;53.36;93219.41;4655343;30;20057;-93
2022/08/22 02:45:18;;;;;;;1.30;1.00;;;;;;;23.24;53.01;93223.13;4671019;30;20050;-94
2022/08/22 02:48:03;;;;;;;2.13;1.35;;;;;;;23.24;53.09;93209.31;4700161;30;20045;-94
2022/08/22 02:51:04;;;;;;;1.33;0.80;;;;;;;23.22;53.11;93212.63;4709102;30;20048;-94
2022/08/22 02:53:39;;;;;;;1.48;1.02;;;;;;;23.24;53.19;93212.06;4704616;30;20332;-94
2022/08/22 02:56:32;;;;;;;1.00;0.80;;;;;;;23.22;53.32;93203.63;4686843;30;20110;-93
2022/08/22 02:59:12;;;;;;;1.00;0.80;;;;;;;23.21;52.98;93200.13;4700277;30;20059;-94
2022/08/22 03:01:41;;;;;;;1.05;0.93;;;;;;;23.22;53.17;93200.84;4718893;30;20124;-94
2022/08/22 03:04:30;;;;;;;1.08;0.90;;;;;;;23.22;53.17;93187.81;4714081;30;20508;-94
2022/08/22 03:07:16;;;;;;;1.65;1.15;;;;;;;23.26;52.97;93195.72;4731198;30;20040;-93
2022/08/22 03:10:09;;;;;;;1.30;0.98;;;;;;;23.21;53.18;93194.59;4744435;30;20032;-95
2022/08/22 03:13:11;;;;;;;1.67;1.13;;;;;;;23.21;53.18;93185.59;4765758;23;20131;-95
2022/08/22 03:16:04;;;;;;;0.98;0.85;;;;;;;23.19;53.12;93182.63;4930444;29;20036;-94
2022/08/22 03:19:08;;;;;;;1.20;0.90;;;;;;;23.21;53.24;93183.56;4913655;29;20036;-94
2022/08/22 03:21:47;;;;;;;1.40;1.00;;;;;;;23.21;53.14;93188.34;4916642;29;20031;-93
2022/08/22 03:24:58;;;;;;;1.00;0.90;;;;;;;23.19;53.30;93179.88;4900436;29;20498;-94
2022/08/22 03:27:35;;;;;;;1.05;0.88;;;;;;;23.21;52.96;93183.56;4855763;29;20044;-93
2022/08/22 03:30:09;;;;;;;1.00;0.80;;;;;;;23.17;53.28;93185.94;4855361;29;20045;-93
2022/08/22 03:32:52;;;;;;;2.25;1.40;;;;;;;23.18;53.16;93181.91;4821435;29;20038;-93
2022/08/22 03:35:33;;;;;;;1.27;0.90;;;;;;;23.17;53.28;93190.72;4835800;29;20198;-93
2022/08/22 03:38:27;;;;;;;1.08;0.90;;;;;;;23.19;53.04;93177.13;4841632;29;20490;-93
2022/08/22 03:41:35;;;;;;;0.70;0.60;;;;;;;23.21;53.12;93188.34;4838543;29;20078;-94
2022/08/22 03:44:16;;;;;;;1.38;0.93;;;;;;;23.23;53.18;93186.53;4841204;29;20109;-92
2022/08/22 03:47:13;;;;;;;1.40;1.00;;;;;;;23.20;53.03;93189.63;4824567;29;20608;-91
2022/08/22 03:49:54;;;;;;;2.78;1.02;;;;;;;23.21;53.42;93189.09;4815816;29;20200;-91
2022/08/22 03:53:06;;;;;;;2.75;0.93;;;;;;;23.20;53.21;93184.84;4799504;29;20031;-91
2022/08/22 03:55:31;;;;;;;2.83;0.93;;;;;;;23.21;53.00;93183.56;4808522;29;20072;-90
2022/08/22 03:58:19;;;;;;;3.95;1.30;;;;;;;23.23;52.88;93197.56;4785667;30;20039;-89
2022/08/22 04:01:06;;;;;;;3.67;1.17;;;;;;;23.22;53.05;93198.84;4796292;29;20038;-92
2022/08/22 04:03:45;;;;;;;3.30;1.02;;;;;;;23.22;52.89;93196.06;4806538;29;20043;-93
2022/08/22 04:06:35;;;;;;;1.50;1.10;;;;;;;23.22;53.02;93200.84;4830411;29;20133;-90
2022/08/22 04:09:14;;;;;;;2.80;1.00;;;;;;;23.21;53.06;93208.38;4843822;29;20054;-93
2022/08/22 04:12:24;;;;;;;1.60;1.20;;;;;;;23.21;52.87;93216.66;4842123;29;20107;-92
2022/08/22 04:15:17;;;;;;;5.63;1.10;;;;;;;23.21;52.95;93210.41;4807806;29;20133;-93
2022/08/22 04:18:02;;;;;;;3.00;1.20;;;;;;;23.17;53.02;93219.03;4777642;29;20073;-92
2022/08/22 04:20:49;;;;;;;1.55;0.85;;;;;;;23.21;52.98;93211.16;4839082;29;20507;-92
2022/08/22 04:23:37;;;;;;;5.00;1.08;;;;;;;23.23;52.60;93211.34;4865102;29;20047;-93
2022/08/22 04:26:14;;;;;;;5.63;1.73;;;;;;;23.15;50.50;93213.34;4884416;23;20091;-95
2022/08/22 04:28:48;;;;;;;13.45;2.22;;;;;;;23.07;50.16;93209.09;4856875;29;20069;-91
2022/08/22 04:31:26;;;;;;;10.45;2.50;;;;;;;23.04;48.49;93207.41;4842562;29;20063;-92
2022/08/22 04:34:05;;;;;;;2.95;2.25;;;;;;;23.00;48.19;93209.78;4857044;29;20108;-91
2022/08/22 04:36:44;;;;;;;13.95;6.25;;;;;;;22.97;48.05;93203.34;4866150;29;20070;-92
2022/08/22 04:39:29;;;;;;;7.85;4.60;;;;;;;22.99;47.71;93220.09;4866735;29;20205;-85
2022/08/22 04:42:14;;;;;;;64.53;33.92;;;;;;;22.94;47.63;93209.25;4867346;29;20055;-91
2022/08/22 04:44:52;;;;;;;318.55;283.20;;;;;;;23.00;47.34;93213.28;4849578;29;20045;-94
2022/08/22 04:47:34;;;;;;;32.08;10.48;;;;;;;23.00;46.63;93210.53;4848548;29;20068;-91
2022/08/22 04:50:35;;;;;;;7.10;4.50;;;;;;;22.68;46.53;93207.44;4865685;29;20049;-90
2022/08/22 04:53:31;;;;;;;13.95;3.75;;;;;;;22.52;46.65;93226.63;4865515;29;20145;-94
2022/08/22 04:56:51;;;;;;;22.27;5.15;;;;;;;22.39;47.07;93223.25;4998308;23;20048;-93
2022/08/22 05:23:11;;;;;;;46.22;19.58;;;;;;;21.74;48.72;93231.38;5104584;23;20052;-92
2022/08/22 05:25:45;;;;;;;33.15;14.18;;;;;;;21.82;48.59;93223.91;5252168;23;20052;-94
2022/08/22 05:28:42;;;;;;;33.83;13.82;;;;;;;21.78;48.82;93220.03;4910213;29;20027;-94
2022/08/22 05:39:24;;;;;;;28.15;8.27;;;;;;;21.60;49.39;93229.22;5101442;23;20064;-92
2022/08/22 05:42:36;;;;;;;19.83;7.40;;;;;;;21.67;49.15;93237.53;4886578;23;20059;-93
2022/08/22 05:45:09;;;;;;;15.95;8.75;;;;;;;21.68;49.01;93239.00;5029091;23;20022;-93
2022/08/22 05:47:41;;;;;;;22.45;6.88;;;;;;;21.60;49.39;93227.22;4853914;29;20037;-92
2022/08/22 05:51:01;;;;;;;38.25;18.65;;;;;;;21.58;49.26;93229.75;4912856;23;20049;-94
2022/08/22 05:53:39;;;;;;;42.08;16.60;;;;;;;21.60;49.58;93232.72;4869966;29;20126;-95
2022/08/22 06:02:06;;;;;;;17.63;8.52;;;;;;;21.60;49.81;93248.47;4975406;23;20067;-91
2022/08/22 06:05:06;;;;;;;20.50;7.32;;;;;;;21.75;49.04;93248.63;4887681;29;20032;-92
2022/08/22 06:10:31;;;;;;;15.05;7.72;;;;;;;21.65;49.42;93242.81;5044968;23;20075;-93
2022/08/22 06:13:39;;;;;;;16.83;7.75;;;;;;;21.74;49.61;93247.13;4933334;29;20024;-93
2022/08/22 06:16:33;;;;;;;10.73;6.00;;;;;;;21.77;49.40;93252.31;4903010;23;20088;-92
2022/08/22 06:19:18;;;;;;;13.73;6.22;;;;;;;21.72;49.30;93246.94;4899490;23;20051;-93
2022/08/22 06:22:27;;;;;;;16.05;7.90;;;;;;;21.77;49.43;93243.31;4902128;29;20047;-93
2022/08/22 06:25:04;;;;;;;34.20;13.73;;;;;;;21.63;49.44;93247.41;4914708;29;20518;-94
2022/08/22 06:33:47;;;;;;;7.60;4.82;;;;;;;21.66;49.19;93240.81;4896670;29;20060;-92
2022/08/22 06:39:36;;;;;;;7.60;4.72;;;;;;;21.66;49.28;93249.06;4948313;23;20069;-93
2022/08/22 06:42:24;;;;;;;20.92;13.05;;;;;;;21.74;48.95;93256.13;4899718;29;20048;-92
2022/08/22 06:45:00;;;;;;;71.10;37.10;;;;;;;21.61;49.19;93264.44;4855806;29;20049;-91
2022/08/22 06:47:34;;;;;;;29.02;13.25;;;;;;;21.63;49.25;93256.41;4807835;29;20042;-91
2022/08/22 06:50:13;;;;;;;29.73;13.25;;;;;;;21.63;49.33;93259.16;4884218;23;20049;-90
2022/08/22 06:53:06;;;;;;;44.92;20.30;;;;;;;21.75;49.34;93260.34;4866257;29;20037;-94
2022/08/22 07:02:55;;;;;;;20.20;11.38;;;;;;;21.74;49.24;93271.91;4962928;23;20057;-92
2022/08/22 07:05:24;;;;;;;28.70;10.95;;;;;;;21.82;49.07;93267.22;4826536;29;20062;-91
2022/08/22 07:07:54;;;;;;;27.27;10.63;;;;;;;21.79;49.10;93266.28;4832844;29;20037;-91
2022/08/22 07:10:22;;;;;;;28.13;12.95;;;;;;;21.79;49.30;93258.00;4826757;29;20056;-92
2022/08/22 07:12:55;;;;;;;23.45;10.90;;;;;;;21.81;49.28;93258.22;4852232;29;20112;-94
2022/08/22 07:16:18;;;;;;;17.73;9.13;;;;;;;21.83;49.13;93252.91;4940713;23;20048;-92
2022/08/22 07:18:46;;;;;;;48.00;22.75;;;;;;;21.86;48.75;93271.13;4884271;29;20071;-92
2022/08/22 07:21:28;;;;;;;22.45;12.35;;;;;;;21.88;49.30;93267.78;4861487;29;20049;-90
2022/08/22 07:23:54;;;;;;;28.17;13.98;;;;;;;21.85;49.48;93266.13;4865448;29;20456;-91
2022/08/22 07:26:20;;;;;;;27.90;12.48;;;;;;;21.84;49.43;93268.16;4881684;29;20037;-94
2022/08/22 07:28:50;;;;;;;38.75;16.60;;;;;;;21.85;49.64;93264.13;4898846;29;20055;-91
2022/08/22 07:31:46;;;;;;;28.58;14.43;;;;;;;21.90;49.58;93268.75;4866669;29;20032;-92
2022/08/22 07:34:43;;;;;;;28.80;15.15;;;;;;;21.92;49.73;93264.72;4887167;29;20086;-91
2022/08/22 07:37:35;;;;;;;23.77;13.40;;;;;;;21.89;49.93;93269.28;4888905;29;20051;-92
2022/08/22 07:40:20;;;;;;;28.00;11.80;;;;;;;21.90;49.90;93271.50;4893743;29;20036;-93
2022/08/22 07:43:29;;;;;;;25.25;10.93;;;;;;;21.83;50.03;93263.19;4882620;29;20033;-93
2022/08/22 07:46:05;;;;;;;31.13;15.77;;;;;;;21.92;50.26;93261.97;4950611;23;20056;-91
2022/08/22 07:48:48;;;;;;;36.50;16.85;;;;;;;21.93;50.19;93253.16;4911760;29;20118;-91
2022/08/22 07:51:34;;;;;;;28.80;11.82;;;;;;;21.77;51.13;93243.31;4897189;29;20031;-90
2022/08/22 07:54:06;;;;;;;22.05;10.90;;;;;;;21.73;51.34;93260.16;4913810;29;20024;-91
2022/08/22 07:56:53;;;;;;;24.23;7.72;;;;;;;21.57;52.08;93255.03;4887774;29;20053;-90
2022/08/22 07:59:21;;;;;;;24.45;8.43;;;;;;;21.64;51.89;93249.63;4893827;29;20040;-93
2022/08/22 08:01:49;;;;;;;34.70;8.88;;;;;;;21.40;52.34;93260.94;4911136;23;20036;-93
2022/08/22 08:04:18;;;;;;;33.03;7.97;;;;;;;21.43;52.28;93263.34;4870577;29;20040;-91
2022/08/22 08:06:51;;;;;;;19.98;8.48;;;;;;;21.40;53.28;93264.44;4901825;29;20103;-94
2022/08/22 08:09:18;;;;;;;23.73;7.60;;;;;;;21.49;52.79;93260.47;4908188;29;20104;-91
2022/08/22 08:11:44;;;;;;;19.17;6.30;;;;;;;21.29;53.02;93264.66;4916089;29;20039;-91
2022/08/22 08:14:10;;;;;;;15.23;5.75;;;;;;;21.32;52.38;93265.59;4917115;29;20429;-90
2022/08/22 08:16:42;;;;;;;11.57;5.03;;;;;;;21.18;53.13;93270.38;4877431;29;20032;-93
2022/08/22 08:19:09;;;;;;;6.70;4.15;;;;;;;21.18;53.32;93256.63;4873864;29;20690;-93
2022/08/22 08:21:52;;;;;;;6.78;3.50;;;;;;;21.16;53.31;93270.16;4890235;29;20036;-92
2022/08/22 08:24:25;;;;;;;12.48;5.32;;;;;;;21.23;52.99;93260.53;4888912;29;20116;-92
2022/08/22 08:33:09;;;;;;;19.48;8.85;;;;;;;21.31;52.67;93267.63;4920891;23;20052;-88
2022/08/22 08:35:37;;;;;;;22.23;9.57;;;;;;;21.34;52.77;93258.31;4892602;29;20040;-90
2022/08/22 08:38:09;;;;;;;33.38;15.50;;;;;;;21.46;52.66;93256.75;4872572;29;20028;-91
2022/08/22 08:40:46;;;;;;;34.92;16.80;;;;;;;21.39;52.80;93253.94;4871519;29;20492;-90
2022/08/22 08:43:27;;;;;;;29.02;13.98;;;;;;;21.41;52.56;93256.91;4899707;29;20052;-90
2022/08/22 08:46:01;;;;;;;29.80;13.63;;;;;;;21.41;52.56;93254.91;4895167;29;20045;-92
2022/08/22 08:49:14;;;;;;;25.10;13.30;;;;;;;21.52;52.08;93248.41;4886190;29;20499;-92
2022/08/22 08:52:15;;;;;;;32.63;14.07;;;;;;;21.51;52.08;93258.66;4800377;29;20047;-91
2022/08/22 08:55:02;;;;;;;22.83;12.55;;;;;;;21.53;52.00;93255.38;4827178;29;20038;-88
2022/08/22 08:57:52;;;;;;;29.67;13.20;;;;;;;21.58;51.83;93262.03;4821736;29;20046;-93
2022/08/22 09:04:07;;;;;;;46.78;18.45;;;;;;;21.49;51.91;93261.19;4821486;29;20065;-94
2022/08/22 09:06:52;;;;;;;37.13;15.45;;;;;;;21.53;51.57;93264.38;4820998;29;20039;-93
2022/08/22 09:09:27;;;;;;;43.75;20.73;;;;;;;21.56;51.76;93262.56;4819979;29;20087;-91
2022/08/22 09:12:22;;;;;;;30.75;14.45;;;;;;;21.58;51.73;93260.00;4830178;29;20095;-92
2022/08/22 09:15:09;;;;;;;26.85;11.05;;;;;;;21.48;51.98;93259.72;4818783;29;20054;-91
2022/08/22 09:18:00;;;;;;;726.08;61.08;;;;;;;21.61;59.39;93260.97;4806264;29;20142;-84
2022/08/22 09:20:46;;;;;;;;;;;;;;;21.61;53.87;93260.97;4809420;29;20092;-89
2022/08/22 09:23:33;;;;;;;299.30;36.42;;;;;;;21.62;51.48;93262.44;4884524;29;19923;-90
2022/08/22 09:26:15;;;;;;;38.13;15.38;;;;;;;21.53;51.26;93264.38;4898381;29;20076;-90
2022/08/22 09:28:52;;;;;;;23.63;13.48;;;;;;;21.58;50.77;93273.03;4874775;29;20131;-92
2022/08/22 09:31:33;;;;;;;23.38;12.90;;;;;;;21.55;50.94;93272.81;4867087;29;20970;-91
2022/08/22 09:34:14;;;;;;;24.25;11.65;;;;;;;21.61;50.78;93269.94;4867085;29;20060;-91
2022/08/22 09:36:52;;;;;;;18.13;10.00;;;;;;;21.62;50.56;93279.69;4884233;29;20106;-89
2022/08/22 09:39:45;;;;;;;15.55;8.20;;;;;;;21.61;50.51;93275.44;4885672;29;20091;-89
2022/08/22 09:42:26;;;;;;;18.58;8.63;;;;;;;21.62;50.60;93274.19;4877289;29;20051;-88
2022/08/22 09:45:10;;;;;;;17.65;10.40;;;;;;;21.59;50.60;93266.25;4861366;29;20064;-88
2022/08/22 09:47:40;;;;;;;19.50;12.45;;;;;;;21.61;50.73;93267.19;4876681;29;20139;-89
2022/08/22 09:50:12;;;;;;;23.00;13.53;;;;;;;21.59;50.77;93269.00;4876333;29;20048;-86
2022/08/22 09:52:47;;;;;;;43.05;21.98;;;;;;;21.62;50.64;93265.19;4875652;29;20036;-89
2022/08/22 09:55:30;;;;;;;35.75;19.45;;;;;;;21.64;50.33;93262.66;4888316;29;20040;-88
2022/08/22 09:58:19;;;;;;;48.60;24.23;;;;;;;21.51;50.33;93258.66;4893713;29;20156;-89
2022/08/22 10:00:51;;;;;;;43.72;23.75;;;;;;;21.46;50.34;93261.53;4856660;29;20041;-89
2022/08/22 10:03:39;;;;;;;40.05;18.52;;;;;;;21.47;50.04;93263.00;4873587;29;20032;-87
2022/08/22 10:06:10;;;;;;;35.63;19.02;;;;;;;21.49;49.83;93263.94;4890288;29;20048;-87
2022/08/22 10:08:53;;;;;;;30.15;15.80;;;;;;;21.39;50.06;93259.44;4860104;29;20044;-88
2022/08/22 10:11:25;;;;;;;27.00;13.68;;;;;;;21.44;50.24;93269.56;4908996;29;20456;-91
2022/08/22 10:13:54;;;;;;;26.80;13.98;;;;;;;21.47;50.08;93269.25;4879145;29;20042;-90
2022/08/22 10:16:47;;;;;;;26.30;12.32;;;;;;;21.47;50.10;93268.50;4896247;29;20040;-89
2022/08/22 10:19:26;;;;;;;23.63;11.80;;;;;;;21.52;49.78;93264.91;4913162;29;20042;-86
2022/08/22 10:22:16;;;;;;;19.38;9.70;;;;;;;21.52;50.12;93262.88;4896532;29;20784;-89
2022/08/22 10:24:54;;;;;;;16.33;9.93;;;;;;;21.57;50.02;93268.81;4894452;29;20044;-89
2022/08/22 10:27:34;;;;;;;14.85;8.23;;;;;;;21.57;50.10;93275.03;4887716;29;20040;-89
2022/08/22 10:30:17;;;;;;;14.75;8.07;;;;;;;21.60;49.90;93267.72;4883178;29;20044;-89
2022/08/22 10:32:58;;;;;;;14.15;7.90;;;;;;;21.50;49.87;93265.44;4883384;29;20055;-90
2022/08/22 10:35:56;;;;;;;12.73;6.90;;;;;;;21.61;49.78;93266.47;4891576;29;20065;-88
2022/08/22 10:38:24;;;;;;;13.77;7.20;;;;;;;21.50;50.30;93264.69;4881798;29;20048;-87
2022/08/22 10:41:05;;;;;;;12.00;6.53;;;;;;;21.56;50.19;93276.31;4916049;29;20040;-88
2022/08/22 10:43:43;;;;;;;8.05;5.28;;;;;;;21.55;50.31;93269.34;4931401;29;20087;-89
2022/08/22 10:46:12;;;;;;;9.73;4.95;;;;;;;21.52;50.18;93279.38;4896278;29;20044;-87
2022/08/22 10:48:46;;;;;;;8.45;5.00;;;;;;;21.52;50.13;93287.63;4900522;29;20040;-89
2022/08/22 10:51:42;;;;;;;8.98;4.75;;;;;;;21.60;50.30;93278.75;4875810;29;20059;-88
2022/08/22 10:54:13;;;;;;;7.82;4.60;;;;;;;21.55;50.04;93280.34;4880220;29;20048;-91
2022/08/22 10:56:49;;;;;;;10.32;4.65;;;;;;;21.61;50.12;93283.72;4887715;29;20586;-89
2022/08/22 10:59:30;;;;;;;14.65;6.65;;;;;;;21.57;50.35;93277.06;4868438;29;20045;-90
2022/08/22 11:02:00;;;;;;;17.52;9.40;;;;;;;21.55;50.00;93274.84;4906988;29;20503;-89
2022/08/22 11:04:47;;;;;;;32.25;12.93;;;;;;;21.52;49.89;93284.16;4894834;29;20036;-89
2022/08/22 11:07:27;;;;;;;30.17;12.88;;;;;;;21.54;50.20;93278.84;4897832;29;20047;-89
2022/08/22 11:09:57;;;;;;;22.05;11.02;;;;;;;21.57;49.98;93274.31;4913648;29;20040;-89
2022/08/22 11:12:26;;;;;;;57.80;16.73;;;;;;;21.53;50.32;93277.38;4897554;29;20058;-88
2022/08/22 11:15:08;;;;;;;61.00;21.95;;;;;;;21.53;50.10;93267.13;4892360;29;20106;-88
2022/08/22 11:17:42;;;;;;;54.85;17.75;;;;;;;21.58;49.73;93281.28;4876223;29;20051;-89
2022/08/22 11:20:18;;;;;;;59.47;19.13;;;;;;;21.63;49.65;93285.94;4913166;29;20040;-89
2022/08/22 11:22:54;;;;;;;68.28;21.17;;;;;;;21.56;49.40;93265.31;4898658;29;20067;-89
2022/08/22 11:25:46;;;;;;;78.57;30.40;;;;;;;21.45;49.84;93277.28;4875613;29;20088;-89
2022/08/22 11:28:42;;;;;;;61.38;31.05;;;;;;;21.49;50.01;93274.94;4902412;29;20502;-89
2022/08/22 11:31:20;;;;;;;80.72;36.92;;;;;;;21.55;49.78;93277.59;4932803;29;20415;-88
2022/08/22 11:33:48;;;;;;;88.30;38.38;;;;;;;21.59;49.92;93282.75;4901836;29;20063;-89
2022/08/22 11:36:33;;;;;;;130.85;60.50;;;;;;;21.58;50.03;93287.53;4933715;29;20059;-90
2022/08/22 11:39:06;;;;;;;141.90;73.80;;;;;;;21.60;49.92;93284.97;4883451;29;20048;-89
2022/08/22 11:41:52;;;;;;;124.35;63.28;;;;;;;21.63;49.70;93283.16;4900932;29;20748;-89
2022/08/22 11:44:31;;;;;;;115.38;55.33;;;;;;;21.60;49.21;93278.75;4901789;29;20040;-90
2022/08/22 11:46:57;;;;;;;92.50;44.03;;;;;;;21.52;49.54;93276.63;4866585;29;20048;-90
2022/08/22 11:49:40;;;;;;;109.20;58.25;;;;;;;21.55;49.18;93272.81;4896598;29;20072;-88
2022/08/22 11:52:05;;;;;;;112.10;61.85;;;;;;;21.44;49.50;93286.81;4866676;29;20102;-90
2022/08/22 11:54:33;;;;;;;124.18;62.63;;;;;;;21.49;49.34;93291.44;4896500;29;20659;-89
2022/08/22 11:57:05;;;;;;;98.25;50.83;;;;;;;21.47;49.38;93294.00;4909118;29;20047;-89
2022/08/22 11:59:54;;;;;;;89.55;45.13;;;;;;;21.51;49.12;93302.66;4879174;29;20519;-89
2022/08/22 12:02:46;;;;;;;97.65;42.88;;;;;;;21.51;49.06;93293.69;4878704;29;20068;-89
2022/08/22 12:05:19;;;;;;;82.75;39.75;;;;;;;21.52;49.14;93300.66;4877267;29;20131;-89
2022/08/22 12:07:53;;;;;;;79.80;36.97;;;;;;;21.47;49.13;93296.75;4879776;29;20104;-88
2022/08/22 12:10:19;;;;;;;74.68;39.35;;;;;;;21.53;48.97;93294.63;4865552;29;20040;-90
2022/08/22 12:12:48;;;;;;;79.82;39.88;;;;;;;21.53;49.05;93293.88;4877929;29;20036;-89
2022/08/22 12:15:19;;;;;;;47.15;21.15;;;;;;;21.50;49.08;93294.94;4898561;29;20048;-90
2022/08/22 12:18:10;;;;;;;40.40;17.05;;;;;;;21.44;49.44;93300.56;4903594;29;20131;-89
2022/08/22 12:20:38;;;;;;;43.67;18.02;;;;;;;21.35;50.00;93303.78;4905835;29;20060;-88
2022/08/22 12:23:11;;;;;;;40.03;15.05;;;;;;;21.42;49.91;93303.13;4927152;29;20052;-90
2022/08/22 12:25:51;;;;;;;26.80;11.60;;;;;;;21.37;50.02;93298.47;4903481;29;20127;-87
2022/08/22 12:28:38;;;;;;;38.88;16.52;;;;;;;21.30;50.09;93301.13;4872316;29;20068;-87
2022/08/22 12:31:29;;;;;;;26.50;12.05;;;;;;;21.24;50.13;93301.25;4889367;29;20783;-88
2022/08/22 12:34:02;;;;;;;33.17;13.85;;;;;;;21.27;50.16;93304.94;4906773;29;20603;-91
2022/08/22 12:36:37;;;;;;;23.08;12.60;;;;;;;21.15;50.15;93302.41;4887602;29;20048;-86
2022/08/22 12:39:17;;;;;;;24.63;11.65;;;;;;;21.17;50.42;93312.88;4896206;29;20052;-90
2022/08/22 12:42:04;;;;;;;14.53;9.00;;;;;;;21.13;50.28;93304.22;4882793;29;20052;-89
2022/08/22 12:44:59;;;;;;;11.38;6.63;;;;;;;21.03;50.66;93314.16;4865450;29;20396;-87
2022/08/22 12:47:30;;;;;;;8.77;4.97;;;;;;;20.90;50.68;93312.16;4894207;29;20054;-89
2022/08/22 12:50:23;;;;;;;7.25;4.20;;;;;;;20.94;50.73;93315.34;4892182;29;20063;-90
2022/08/22 12:53:01;;;;;;;8.27;4.53;;;;;;;20.78;50.98;93319.16;4879333;29;20052;-90
2022/08/22 12:55:32;;;;;;;53.35;12.77;;;;;;;20.85;50.94;93315.75;4887524;29;20516;-89
2022/08/22 12:58:06;;;;;;;13.75;4.80;;;;;;;20.80;51.60;93311.09;4898081;29;20040;-90
2022/08/22 13:00:38;;;;;;;19.02;5.93;;;;;;;20.77;52.17;93318.41;4881603;29;20035;-92
2022/08/22 13:03:10;;;;;;;20.75;5.55;;;;;;;20.86;52.01;93320.72;4876824;29;20052;-89
2022/08/22 13:05:36;;;;;;;18.83;5.80;;;;;;;20.80;52.10;93320.09;4886557;29;20131;-89
2022/08/22 13:08:04;;;;;;;15.02;4.78;;;;;;;20.77;52.54;93310.19;4881947;29;20040;-88
2022/08/22 13:10:38;;;;;;;27.05;8.23;;;;;;;20.82;52.15;93325.78;4865089;29;20036;-87
2022/08/22 13:13:04;;;;;;;21.23;7.00;;;;;;;20.81;52.10;93320.81;4915261;29;20047;-89
2022/08/22 13:15:46;;;;;;;34.65;9.10;;;;;;;20.84;52.32;93319.78;4882054;29;20389;-87
2022/08/22 13:18:18;;;;;;;28.50;6.35;;;;;;;20.84;52.22;93319.78;4876754;29;20153;-94
2022/08/22 13:20:46;;;;;;;22.10;7.43;;;;;;;20.77;52.84;93323.91;4883896;29;20051;-92
2022/08/22 13:23:38;;;;;;;16.48;6.43;;;;;;;20.87;52.43;93322.22;4885485;29;20044;-89
2022/08/22 13:26:09;;;;;;;28.50;10.27;;;;;;;20.92;52.20;93319.88;4878411;29;20049;-88
2022/08/22 13:28:40;;;;;;;37.75;10.93;;;;;;;21.01;52.00;93327.69;4879867;29;20064;-88
2022/08/22 13:31:08;;;;;;;28.13;12.05;;;;;;;20.99;51.85;93322.75;4856707;29;20099;-91
2022/08/22 13:33:37;;;;;;;24.83;10.27;;;;;;;21.01;51.71;93317.44;4863675;29;20583;-89
2022/08/22 13:36:07;;;;;;;22.15;11.10;;;;;;;21.02;51.91;93316.16;4894896;29;20426;-88
2022/08/22 13:38:40;;;;;;;24.67;10.35;;;;;;;21.10;51.53;93325.25;4890111;29;20046;-88
2022/08/22 13:41:05;;;;;;;14.95;8.10;;;;;;;21.09;51.75;93320.28;4871563;29;20040;-87
2022/08/22 13:43:36;;;;;;;18.65;8.50;;;;;;;21.08;51.55;93314.03;4864321;29;20054;-86
2022/08/22 13:46:04;;;;;;;19.95;7.75;;;;;;;21.09;51.62;93312.03;4885279;29;20040;-88